Date,TemperatureHighF,TemperatureAvgF,TemperatureLowF,DewpointHighF,DewpointAvgF,DewpointLowF,HumidityHigh,HumidityAvg,HumidityLow,PressureMaxIn,PressureMinIn,WindSpeedMaxMPH,WindSpeedAvgMPH,GustSpeedMaxMPH,PrecipitationSumIn
2013-11-1,44,37,29,40,36,29,100,95,85,0.00,40.00,6,3,11,0.03
2013-11-2,40,34,29,38,33,29,100,97,83,0.00,40.00,5,2,9,0.01
2013-11-3,39,32,25,35,30,25,100,94,74,0.00,40.00,5,2,9,0.01
2013-11-4,39,36,31,37,32,25,98,88,56,0.00,40.00,9,6,18,0.14
2013-11-5,40,39,38,39,38,37,98,97,95,0.00,40.00,10,8,19,0.31
2013-11-6,42,41,40,41,39,38,98,96,92,0.00,40.00,10,6,16,0.25
2013-11-7,43,39,36,40,38,35,100,96,89,0.00,40.00,3,2,6,0.09
2013-11-8,37,35,32,37,32,24,100,91,72,0.00,40.00,12,7,23,0.10
2013-11-9,37,31,26,26,24,23,95,77,63,0.00,40.00,10,6,18,0.01
2013-11-10,42,30,23,34,27,23,99,89,65,0.00,40.00,3,1,5,0.00
2013-11-11,35,31,23,34,29,23,100,94,79,0.00,40.00,5,2,9,0.06
2013-11-12,40,37,34,39,36,34,100,99,96,0.00,40.00,8,5,15,0.20
2013-11-13,42,38,37,41,38,36,100,98,95,0.00,40.00,4,2,9,0.10
2013-11-14,41,38,35,41,37,35,100,99,98,0.00,40.00,9,4,17,0.30
2013-11-15,40,37,31,38,26,16,99,68,43,0.00,40.00,19,12,34,0.21
2013-11-16,29,28,26,19,14,9,66,56,50,0.00,40.00,9,5,20,0.03
2013-11-17,26,23,20,10,8,5,55,50,44,0.00,40.00,16,11,29,0.00
2013-11-18,21,18,14,7,4,1,63,56,43,0.00,40.00,11,7,22,0.00
2013-11-19,19,16,14,17,10,4,92,78,62,0.00,40.00,7,1,12,0.00
2013-11-20,28,24,18,28,23,17,98,95,90,0.00,40.00,2,0,9,0.00
2013-11-21,43,35,28,43,35,28,100,99,98,0.00,40.00,9,4,16,2.20
2013-11-22,42,39,35,41,38,34,99,96,91,0.00,40.00,14,10,29,1.32
2013-11-23,43,34,26,41,33,26,100,95,70,0.00,40.00,12,5,24,0.79
2013-11-24,33,31,27,32,30,27,99,93,81,0.00,40.00,9,5,15,0.07
2013-11-25,42,36,32,40,35,29,100,97,84,0.00,40.00,10,6,18,0.27
2013-11-26,42,40,38,42,40,38,100,99,98,0.00,40.00,5,2,10,0.19
2013-11-27,43,40,37,43,40,37,100,99,96,0.00,40.00,13,6,22,1.25
2013-11-28,41,37,35,40,36,34,99,97,93,0.00,40.00,7,4,16,0.10
2013-11-29,40,36,31,40,36,30,99,98,90,0.00,40.00,7,4,14,0.29
2013-11-30,32,30,25,32,30,22,99,98,89,0.00,40.00,3,1,13,0.01